createdAt,value
2023-03-29T00:01:58.097Z,2.03
2023-03-29T00:07:04.440Z,1.50
2023-03-29T00:12:11.725Z,2.87
2023-03-29T00:17:17.084Z,1.47
2023-03-29T00:22:22.429Z,1.73
2023-03-29T00:27:27.774Z,2.20
2023-03-29T00:32:33.887Z,1.60
2023-03-29T00:37:39.749Z,1.70
2023-03-29T00:42:48.080Z,2.23
2023-03-29T00:47:57.619Z,3.27
2023-03-29T00:53:14.010Z,2.67
2023-03-29T00:58:25.077Z,2.37
2023-03-29T01:03:33.441Z,2.83
2023-03-29T01:08:53.738Z,2.17
2023-03-29T01:14:05.644Z,1.17
2023-03-29T01:19:14.149Z,1.37
2023-03-29T01:24:31.970Z,1.47
2023-03-29T01:29:43.445Z,1.07
2023-03-29T01:34:54.746Z,2.27
2023-03-29T01:40:00.224Z,1.30
2023-03-29T01:45:11.248Z,1.43
2023-03-29T01:50:34.358Z,2.37
2023-03-29T01:55:42.520Z,1.53
2023-03-29T02:00:49.313Z,1.47
2023-03-29T02:05:56.307Z,2.77
2023-03-29T02:11:01.742Z,1.50
2023-03-29T02:16:13.009Z,1.43
2023-03-29T02:21:24.078Z,0.97
2023-03-29T02:26:29.403Z,1.73
2023-03-29T02:31:38.487Z,2.07
2023-03-29T02:36:52.795Z,1.23
2023-03-29T02:41:59.488Z,1.83
2023-03-29T02:47:25.803Z,1.03
2023-03-29T02:52:34.260Z,1.60
2023-03-29T02:57:41.275Z,0.87
2023-03-29T03:02:48.010Z,1.50
2023-03-29T03:07:53.401Z,1.90
2023-03-29T03:12:58.511Z,1.73
2023-03-29T03:18:04.886Z,1.20
2023-03-29T03:23:10.804Z,1.70
2023-03-29T03:28:15.948Z,2.03
2023-03-29T03:33:21.746Z,1.53
2023-03-29T03:38:26.998Z,1.47
2023-03-29T03:43:32.508Z,2.60
2023-03-29T03:48:37.771Z,2.13
2023-03-29T03:53:43.160Z,2.33
2023-03-29T03:58:53.809Z,3.27
2023-03-29T04:03:59.154Z,2.53
2023-03-29T04:09:05.098Z,1.70
2023-03-29T04:14:11.262Z,1.40
2023-03-29T04:19:16.883Z,1.47
2023-03-29T04:24:22.122Z,1.60
2023-03-29T04:29:27.393Z,1.83
2023-03-29T04:34:33.031Z,1.67
2023-03-29T04:39:38.963Z,3.47
2023-03-29T04:44:44.544Z,3.03
2023-03-29T04:49:51.329Z,2.70
2023-03-29T04:54:56.610Z,4.63
2023-03-29T05:00:01.906Z,4.27
2023-03-29T05:05:07.214Z,4.90
2023-03-29T05:10:12.526Z,3.90
2023-03-29T05:15:17.723Z,4.50
2023-03-29T05:20:23.735Z,2.93
2023-03-29T05:25:29.264Z,4.10
2023-03-29T05:30:34.522Z,3.37
2023-03-29T05:35:39.878Z,3.27
2023-03-29T05:40:45.245Z,2.53
2023-03-29T05:45:52.532Z,4.37
2023-03-29T05:50:57.934Z,3.57
2023-03-29T05:56:04.237Z,1.40
2023-03-29T06:01:19.426Z,1.93
2023-03-29T06:06:24.796Z,11.13
2023-03-29T06:11:30.112Z,7.13
2023-03-29T06:16:36.536Z,5.10
2023-03-29T06:21:41.989Z,6.83
2023-03-29T06:26:47.689Z,7.77
2023-03-29T06:31:57.391Z,6.93
2023-03-29T06:37:03.315Z,3.13
2023-03-29T06:42:19.921Z,2.23
2023-03-29T06:47:16.627Z,2.30
2023-03-29T06:52:21.794Z,2.13
2023-03-29T06:57:27.689Z,1.90
2023-03-29T07:02:34.629Z,1.70
2023-03-29T07:07:59.238Z,2.40
2023-03-29T07:13:06.322Z,2.40
2023-03-29T07:18:14.176Z,2.70
2023-03-29T07:23:20.746Z,3.20
2023-03-29T07:28:26.098Z,3.20
2023-03-29T07:33:31.438Z,1.90
2023-03-29T07:38:37.436Z,2.63
2023-03-29T07:43:43.006Z,1.97
2023-03-29T07:48:48.795Z,2.30
2023-03-29T07:53:54.345Z,1.73
2023-03-29T07:58:59.777Z,1.70
2023-03-29T08:04:05.259Z,1.47
2023-03-29T08:09:10.709Z,1.90
2023-03-29T08:14:16.246Z,1.87
2023-03-29T08:19:22.021Z,2.07
2023-03-29T08:24:27.490Z,1.77
2023-03-29T08:29:32.886Z,1.80
2023-03-29T08:34:38.769Z,1.67
2023-03-29T08:39:44.694Z,1.70
2023-03-29T08:44:56.337Z,2.23
2023-03-29T08:50:02.765Z,2.20
2023-03-29T08:55:11.593Z,2.00
2023-03-29T09:00:23.146Z,2.23
2023-03-29T09:05:34.548Z,1.97
2023-03-29T09:10:42.863Z,1.80
2023-03-29T09:15:56.975Z,1.50
2023-03-29T09:21:04.972Z,2.30
2023-03-29T09:26:31.316Z,1.70
2023-03-29T09:31:39.694Z,2.10
2023-03-29T09:36:56.192Z,1.77
2023-03-29T09:42:12.374Z,1.87
2023-03-29T09:47:29.718Z,1.57
2023-03-29T09:52:36.019Z,1.60
2023-03-29T09:57:41.543Z,1.70
2023-03-29T10:02:55.040Z,0.87
2023-03-29T10:08:02.298Z,1.20
2023-03-29T10:13:10.656Z,1.70
2023-03-29T10:18:18.109Z,1.20
2023-03-29T10:23:23.384Z,0.83
2023-03-29T10:28:30.991Z,1.53
2023-03-29T10:33:37.548Z,1.57
2023-03-29T10:38:42.932Z,1.80
2023-03-29T10:43:51.251Z,2.27
2023-03-29T10:49:07.273Z,1.10
2023-03-29T10:54:20.126Z,1.03
2023-03-29T10:59:34.263Z,2.23
2023-03-29T11:04:58.698Z,1.40
2023-03-29T11:10:07.049Z,1.23
2023-03-29T11:15:30.234Z,1.30
2023-03-29T11:20:47.802Z,1.37
2023-03-29T11:25:58.896Z,0.90
2023-03-29T11:31:16.303Z,1.83
2023-03-29T11:36:30.478Z,1.27
2023-03-29T11:41:38.653Z,1.20
2023-03-29T11:46:52.931Z,1.13
2023-03-29T11:52:05.132Z,1.23
2023-03-29T11:57:20.872Z,1.40
2023-03-29T12:02:29.443Z,1.30
2023-03-29T12:07:41.059Z,1.60
2023-03-29T12:13:01.183Z,1.73
2023-03-29T12:18:18.363Z,1.77
2023-03-29T12:23:23.862Z,1.63
2023-03-29T12:29:01.148Z,2.10
2023-03-29T12:34:32.108Z,2.10
2023-03-29T12:39:38.754Z,1.77
2023-03-29T12:44:47.027Z,1.97
2023-03-29T12:50:02.695Z,1.30
2023-03-29T12:55:26.751Z,1.97
2023-03-29T13:00:43.791Z,1.50
2023-03-29T13:05:50.489Z,1.40
2023-03-29T13:10:57.550Z,1.20
2023-03-29T13:16:21.300Z,1.20
2023-03-29T13:21:35.654Z,1.27
2023-03-29T13:26:52.958Z,1.40
2023-03-29T13:32:07.560Z,2.20
2023-03-29T13:37:28.061Z,1.70
2023-03-29T13:42:39.205Z,1.73
2023-03-29T13:47:58.701Z,1.57
2023-03-29T13:53:06.241Z,2.27
2023-03-29T13:58:17.485Z,1.47
2023-03-29T14:03:27.141Z,1.60
2023-03-29T14:08:37.579Z,1.83
2023-03-29T14:13:43.909Z,2.07
2023-03-29T14:18:50.722Z,1.83
2023-03-29T14:24:04.148Z,1.80
2023-03-29T14:29:12.264Z,1.50
2023-03-29T14:34:19.857Z,1.50
2023-03-29T14:39:25.529Z,1.20
2023-03-29T14:44:34.724Z,1.43
2023-03-29T14:49:41.683Z,1.90
2023-03-29T14:54:50.332Z,2.13
2023-03-29T15:00:06.509Z,1.30
2023-03-29T15:05:27.420Z,1.93
2023-03-29T15:10:39.023Z,1.40
2023-03-29T15:15:44.248Z,2.47
2023-03-29T15:20:51.590Z,1.40
2023-03-29T15:25:59.705Z,6.13
2023-03-29T15:31:08.513Z,2.50
2023-03-29T15:36:16.704Z,2.40
2023-03-29T15:41:23.117Z,1.73
2023-03-29T15:46:28.272Z,2.07
2023-03-29T15:51:34.333Z,2.60
2023-03-29T15:56:48.825Z,2.97
2023-03-29T16:01:54.881Z,3.30
2023-03-29T16:07:00.559Z,2.03
2023-03-29T16:12:06.126Z,2.10
2023-03-29T16:17:12.399Z,3.10
2023-03-29T16:22:17.484Z,2.57
2023-03-29T16:27:22.564Z,2.43
2023-03-29T16:32:27.846Z,3.53
2023-03-29T16:37:33.510Z,2.67
2023-03-29T16:42:38.554Z,1.63
2023-03-29T16:47:45.191Z,1.90
2023-03-29T16:52:53.021Z,2.53
2023-03-29T16:57:59.450Z,3.60
2023-03-29T17:03:05.593Z,3.37
2023-03-29T17:08:11.124Z,2.43
2023-03-29T17:13:17.364Z,2.90
2023-03-29T17:18:24.624Z,2.83
2023-03-29T17:23:29.868Z,2.77
2023-03-29T17:28:36.004Z,3.13
2023-03-29T17:33:41.145Z,3.10
2023-03-29T17:38:47.933Z,4.27
2023-03-29T17:43:53.073Z,4.13
2023-03-29T17:49:00.027Z,4.73
2023-03-29T17:54:06.860Z,4.43
2023-03-29T17:59:11.974Z,3.60
2023-03-29T18:04:17.491Z,3.20
2023-03-29T18:09:22.886Z,3.73
2023-03-29T18:14:28.211Z,4.07
2023-03-29T18:19:33.308Z,5.77
2023-03-29T18:24:38.350Z,8.03
2023-03-29T18:29:44.678Z,10.13
2023-03-29T18:34:49.871Z,10.37
2023-03-29T18:39:55.041Z,12.33
2023-03-29T18:45:00.244Z,5.50
2023-03-29T18:50:05.798Z,3.17
2023-03-29T18:55:11.019Z,3.70
2023-03-29T19:00:16.306Z,3.53
2023-03-29T19:05:21.606Z,2.90
2023-03-29T19:10:27.978Z,3.83
2023-03-29T19:15:34.743Z,4.93
2023-03-29T19:20:40.306Z,5.43
2023-03-29T19:25:53.741Z,5.53
2023-03-29T19:31:01.133Z,5.13
2023-03-29T19:36:07.245Z,4.73
2023-03-29T19:41:13.147Z,4.47
2023-03-29T19:46:18.296Z,4.40
2023-03-29T19:51:26.089Z,24.33
2023-03-29T19:56:33.481Z,3.37
2023-03-29T20:01:40.398Z,14.27
2023-03-29T20:06:46.379Z,12.53
2023-03-29T20:11:53.222Z,11.40
2023-03-29T20:16:58.667Z,50.13
2023-03-29T20:22:05.537Z,31.40
2023-03-29T20:27:11.201Z,6.20
2023-03-29T20:32:17.492Z,20.47
2023-03-29T20:37:23.157Z,22.23
2023-03-29T20:42:28.859Z,9.70
2023-03-29T20:47:35.890Z,8.63
2023-03-29T20:52:41.129Z,5.37
2023-03-29T20:57:46.711Z,5.17
2023-03-29T21:02:53.039Z,5.10
2023-03-29T21:07:59.100Z,7.20
2023-03-29T21:13:04.426Z,6.30
2023-03-29T21:18:09.642Z,5.57
2023-03-29T21:23:14.997Z,6.00
2023-03-29T21:28:20.737Z,7.10
2023-03-29T21:33:25.968Z,9.47
2023-03-29T21:38:31.295Z,7.87
2023-03-29T21:43:36.373Z,7.80
2023-03-29T21:48:42.019Z,8.17
2023-03-29T21:53:47.312Z,7.43
2023-03-29T21:58:52.578Z,6.33
2023-03-29T22:03:57.819Z,5.90
2023-03-29T22:09:03.507Z,6.13
2023-03-29T22:14:09.657Z,5.97
2023-03-29T22:19:14.798Z,9.17
2023-03-29T22:24:20.106Z,6.13
2023-03-29T22:29:25.414Z,5.37
2023-03-29T22:34:30.922Z,6.97
2023-03-29T22:39:36.973Z,5.40
2023-03-29T22:44:42.126Z,5.47
2023-03-29T22:49:47.273Z,6.47
2023-03-29T22:54:52.428Z,5.47
2023-03-29T22:59:58.253Z,5.23
2023-03-29T23:05:03.526Z,5.10
2023-03-29T23:10:09.532Z,5.30
2023-03-29T23:15:16.330Z,5.20
2023-03-29T23:20:21.673Z,6.73
2023-03-29T23:25:27.826Z,5.60
2023-03-29T23:30:36.306Z,4.57
2023-03-29T23:35:41.564Z,6.23
2023-03-29T23:40:54.885Z,5.43
2023-03-29T23:46:02.955Z,5.40
2023-03-29T23:51:08.431Z,6.50
2023-03-29T23:56:13.813Z,5.77
